sensor_id;sensor_type;location;lat;lon;timestamp;pressure;altitude;pressure_sealevel;temperature;humidity
71105;BME280;58760;48.716;8.962;2023-07-30T07:17:56;96309.72;;;17.78;100.00
71105;BME280;58760;48.716;8.962;2023-07-30T07:20:22;96314.19;;;17.84;100.00
71105;BME280;58760;48.716;8.962;2023-07-30T07:22:47;96304.84;;;17.68;100.00
71105;BME280;58760;48.716;8.962;2023-07-30T07:25:13;96278.81;;;17.69;100.00
71105;BME280;58760;48.716;8.962;2023-07-30T07:27:39;96277.56;;;17.47;100.00
71105;BME280;58760;48.716;8.962;2023-07-30T07:30:05;96288.66;;;17.57;100.00
71105;BME280;58760;48.716;8.962;2023-07-30T07:32:30;96293.00;;;17.58;100.00
71105;BME280;58760;48.716;8.962;2023-07-30T07:34:55;96306.16;;;17.59;100.00
71105;BME280;58760;48.716;8.962;2023-07-30T07:37:21;96311.91;;;17.63;100.00
71105;BME280;58760;48.716;8.962;2023-07-30T07:39:46;96319.00;;;17.57;100.00
71105;BME280;58760;48.716;8.962;2023-07-30T07:42:11;96323.09;;;17.60;100.00
71105;BME280;58760;48.716;8.962;2023-07-30T07:44:37;96320.19;;;17.61;100.00
71105;BME280;58760;48.716;8.962;2023-07-30T07:47:03;96314.31;;;17.71;100.00
71105;BME280;58760;48.716;8.962;2023-07-30T07:49:29;96315.53;;;17.75;100.00
71105;BME280;58760;48.716;8.962;2023-07-30T07:51:54;96311.41;;;17.91;100.00
71105;BME280;58760;48.716;8.962;2023-07-30T07:54:20;96309.25;;;17.99;100.00
71105;BME280;58760;48.716;8.962;2023-07-30T07:56:45;96317.69;;;18.03;100.00
71105;BME280;58760;48.716;8.962;2023-07-30T07:59:10;96311.47;;;18.20;100.00
71105;BME280;58760;48.716;8.962;2023-07-30T08:01:36;96303.72;;;18.12;100.00
71105;BME280;58760;48.716;8.962;2023-07-30T08:04:01;96307.66;;;18.28;100.00
71105;BME280;58760;48.716;8.962;2023-07-30T08:06:27;96313.94;;;18.22;100.00
71105;BME280;58760;48.716;8.962;2023-07-30T08:08:52;96313.94;;;18.22;100.00
71105;BME280;58760;48.716;8.962;2023-07-30T08:11:18;96310.94;;;18.30;100.00
71105;BME280;58760;48.716;8.962;2023-07-30T08:13:43;96304.59;;;18.24;100.00
71105;BME280;58760;48.716;8.962;2023-07-30T08:16:08;96299.13;;;18.31;100.00
71105;BME280;58760;48.716;8.962;2023-07-30T08:18:34;96301.78;;;18.49;100.00
71105;BME280;58760;48.716;8.962;2023-07-30T08:21:00;96311.22;;;18.40;100.00
71105;BME280;58760;48.716;8.962;2023-07-30T08:23:25;96315.91;;;18.63;100.00
71105;BME280;58760;48.716;8.962;2023-07-30T08:25:50;96303.72;;;18.60;100.00
71105;BME280;58760;48.716;8.962;2023-07-30T08:28:16;96302.28;;;18.76;100.00
71105;BME280;58760;48.716;8.962;2023-07-30T08:30:41;96302.47;;;18.63;100.00
71105;BME280;58760;48.716;8.962;2023-07-30T08:33:06;96294.66;;;18.73;100.00
71105;BME280;58760;48.716;8.962;2023-07-30T08:35:32;96300.16;;;18.48;100.00
71105;BME280;58760;48.716;8.962;2023-07-30T08:37:58;96315.31;;;18.61;100.00
71105;BME280;58760;48.716;8.962;2023-07-30T08:40:24;96305.50;;;18.66;100.00
71105;BME280;58760;48.716;8.962;2023-07-30T08:42:53;96301.41;;;18.64;100.00
71105;BME280;58760;48.716;8.962;2023-07-30T08:45:19;96309.25;;;18.65;100.00
71105;BME280;58760;48.716;8.962;2023-07-30T08:47:46;96308.91;;;18.73;100.00
71105;BME280;58760;48.716;8.962;2023-07-30T08:50:12;96313.13;;;18.69;98.60
71105;BME280;58760;48.716;8.962;2023-07-30T08:52:38;96314.03;;;18.63;100.00
71105;BME280;58760;48.716;8.962;2023-07-30T08:55:04;96316.13;;;18.61;100.00
71105;BME280;58760;48.716;8.962;2023-07-30T08:57:30;96318.53;;;18.51;100.00
71105;BME280;58760;48.716;8.962;2023-07-30T09:00:04;96317.22;;;18.72;100.00
71105;BME280;58760;48.716;8.962;2023-07-30T09:02:38;96317.97;;;18.91;96.66
71105;BME280;58760;48.716;8.962;2023-07-30T09:05:04;96320.91;;;19.01;95.88
71105;BME280;58760;48.716;8.962;2023-07-30T09:07:29;96325.00;;;18.92;96.76
71105;BME280;58760;48.716;8.962;2023-07-30T09:09:55;96324.59;;;18.76;100.00
71105;BME280;58760;48.716;8.962;2023-07-30T09:12:26;96318.53;;;18.81;97.66
71105;BME280;58760;48.716;8.962;2023-07-30T09:14:51;96325.38;;;18.95;96.05
71105;BME280;58760;48.716;8.962;2023-07-30T09:17:17;96325.88;;;19.27;95.24
71105;BME280;58760;48.716;8.962;2023-07-30T09:19:43;96324.00;;;19.39;94.53
71105;BME280;58760;48.716;8.962;2023-07-30T09:22:09;96335.16;;;19.43;94.55
71105;BME280;58760;48.716;8.962;2023-07-30T09:24:34;96341.84;;;19.40;93.99
71105;BME280;58760;48.716;8.962;2023-07-30T09:27:02;96332.78;;;19.34;92.46
71105;BME280;58760;48.716;8.962;2023-07-30T09:29:27;96342.38;;;19.30;88.10
71105;BME280;58760;48.716;8.962;2023-07-30T09:31:54;96350.41;;;19.19;89.85
71105;BME280;58760;48.716;8.962;2023-07-30T09:34:22;96348.91;;;19.23;91.78
71105;BME280;58760;48.716;8.962;2023-07-30T09:36:51;96340.38;;;19.26;93.97
71105;BME280;58760;48.716;8.962;2023-07-30T09:39:19;96333.34;;;19.25;91.56
71105;BME280;58760;48.716;8.962;2023-07-30T09:41:45;96337.38;;;19.34;91.80
71105;BME280;58760;48.716;8.962;2023-07-30T09:44:11;96338.84;;;19.18;86.19
71105;BME280;58760;48.716;8.962;2023-07-30T09:46:48;96336.00;;;19.43;87.44
71105;BME280;58760;48.716;8.962;2023-07-30T09:49:15;96334.81;;;19.62;87.04
71105;BME280;58760;48.716;8.962;2023-07-30T09:51:40;96347.47;;;19.85;86.35
71105;BME280;58760;48.716;8.962;2023-07-30T09:54:07;96340.31;;;20.02;83.94
71105;BME280;58760;48.716;8.962;2023-07-30T09:56:35;96345.56;;;20.09;83.09
71105;BME280;58760;48.716;8.962;2023-07-30T09:59:02;96347.53;;;20.13;81.81
71105;BME280;58760;48.716;8.962;2023-07-30T10:01:28;96347.03;;;20.40;82.51
71105;BME280;58760;48.716;8.962;2023-07-30T10:03:56;96356.44;;;20.37;79.73
71105;BME280;58760;48.716;8.962;2023-07-30T10:06:23;96351.72;;;20.44;75.83
71105;BME280;58760;48.716;8.962;2023-07-30T10:08:51;96357.81;;;20.40;73.38
71105;BME280;58760;48.716;8.962;2023-07-30T10:11:19;96364.13;;;20.45;73.99
71105;BME280;58760;48.716;8.962;2023-07-30T10:13:44;96353.66;;;20.60;71.00
71105;BME280;58760;48.716;8.962;2023-07-30T10:16:11;96354.44;;;20.72;73.12
71105;BME280;58760;48.716;8.962;2023-07-30T10:18:40;96350.09;;;20.71;70.64
71105;BME280;58760;48.716;8.962;2023-07-30T10:21:14;96351.53;;;20.62;70.40
71105;BME280;58760;48.716;8.962;2023-07-30T10:23:58;96355.25;;;20.73;70.79
71105;BME280;58760;48.716;8.962;2023-07-30T10:26:28;96348.25;;;20.88;71.59
71105;BME280;58760;48.716;8.962;2023-07-30T10:32:02;96354.09;;;20.97;67.83
71105;BME280;58760;48.716;8.962;2023-07-30T10:34:44;96358.78;;;20.73;66.70
71105;BME280;58760;48.716;8.962;2023-07-30T10:37:10;96361.56;;;20.78;64.30
71105;BME280;58760;48.716;8.962;2023-07-30T10:39:35;96354.19;;;21.02;67.00
71105;BME280;58760;48.716;8.962;2023-07-30T10:42:00;96359.53;;;21.14;64.56
71105;BME280;58760;48.716;8.962;2023-07-30T10:46:57;96371.00;;;21.21;64.27
71105;BME280;58760;48.716;8.962;2023-07-30T10:49:23;96353.94;;;21.32;63.79
71105;BME280;58760;48.716;8.962;2023-07-30T10:51:50;96362.13;;;21.09;62.66
71105;BME280;58760;48.716;8.962;2023-07-30T10:54:16;96352.44;;;21.24;62.52
71105;BME280;58760;48.716;8.962;2023-07-30T10:56:41;96353.84;;;21.44;61.45
71105;BME280;58760;48.716;8.962;2023-07-30T10:59:08;96351.16;;;21.60;61.20
71105;BME280;58760;48.716;8.962;2023-07-30T11:01:42;96359.25;;;21.77;59.29
71105;BME280;58760;48.716;8.962;2023-07-30T11:04:14;96366.13;;;21.84;58.20
71105;BME280;58760;48.716;8.962;2023-07-30T11:06:45;96358.59;;;21.70;58.42
71105;BME280;58760;48.716;8.962;2023-07-30T11:09:37;96368.50;;;21.64;58.74
71105;BME280;58760;48.716;8.962;2023-07-30T11:12:03;96356.16;;;21.68;58.52
71105;BME280;58760;48.716;8.962;2023-07-30T11:14:28;96352.69;;;21.73;58.54
71105;BME280;58760;48.716;8.962;2023-07-30T11:16:58;96364.22;;;21.85;59.01
71105;BME280;58760;48.716;8.962;2023-07-30T11:19:24;96362.53;;;21.96;59.62
71105;BME280;58760;48.716;8.962;2023-07-30T11:21:51;96341.47;;;21.98;58.92
71105;BME280;58760;48.716;8.962;2023-07-30T11:24:17;96357.75;;;21.86;59.52
71105;BME280;58760;48.716;8.962;2023-07-30T11:26:43;96347.75;;;21.86;59.53
71105;BME280;58760;48.716;8.962;2023-07-30T11:29:18;96353.19;;;21.70;62.25
71105;BME280;58760;48.716;8.962;2023-07-30T11:31:45;96344.53;;;21.34;62.80
71105;BME280;58760;48.716;8.962;2023-07-30T11:34:11;96347.97;;;21.13;64.40
71105;BME280;58760;48.716;8.962;2023-07-30T11:36:38;96366.78;;;20.97;65.13
71105;BME280;58760;48.716;8.962;2023-07-30T11:39:05;96371.19;;;20.74;67.06
71105;BME280;58760;48.716;8.962;2023-07-30T11:41:32;96364.13;;;20.85;65.88
71105;BME280;58760;48.716;8.962;2023-07-30T11:43:57;96371.34;;;20.68;65.70
71105;BME280;58760;48.716;8.962;2023-07-30T11:46:23;96374.47;;;20.48;66.59
71105;BME280;58760;48.716;8.962;2023-07-30T11:48:52;96386.31;;;20.24;65.58
71105;BME280;58760;48.716;8.962;2023-07-30T11:51:28;96391.47;;;20.14;67.54
71105;BME280;58760;48.716;8.962;2023-07-30T11:53:55;96403.06;;;20.14;67.93
71105;BME280;58760;48.716;8.962;2023-07-30T11:56:36;96397.56;;;20.44;66.00
71105;BME280;58760;48.716;8.962;2023-07-30T11:59:05;96385.66;;;20.97;65.17
71105;BME280;58760;48.716;8.962;2023-07-30T12:01:33;96376.19;;;21.72;64.11
71105;BME280;58760;48.716;8.962;2023-07-30T12:04:05;96374.38;;;22.71;60.11
71105;BME280;58760;48.716;8.962;2023-07-30T12:06:44;96384.31;;;23.41;56.21
71105;BME280;58760;48.716;8.962;2023-07-30T12:09:12;96379.25;;;23.81;55.30
71105;BME280;58760;48.716;8.962;2023-07-30T12:11:49;96389.03;;;23.87;55.33
71105;BME280;58760;48.716;8.962;2023-07-30T12:14:15;96395.34;;;22.86;56.12
71105;BME280;58760;48.716;8.962;2023-07-30T12:16:41;96383.38;;;22.60;56.10
71105;BME280;58760;48.716;8.962;2023-07-30T12:19:06;96388.66;;;22.50;57.17
71105;BME280;58760;48.716;8.962;2023-07-30T12:21:32;96392.84;;;22.58;57.36
71105;BME280;58760;48.716;8.962;2023-07-30T12:23:57;96385.47;;;22.31;59.10
71105;BME280;58760;48.716;8.962;2023-07-30T12:26:22;96396.19;;;22.65;57.05
71105;BME280;58760;48.716;8.962;2023-07-30T12:28:48;96393.59;;;22.53;58.09
71105;BME280;58760;48.716;8.962;2023-07-30T12:31:13;96392.50;;;22.11;59.69
71105;BME280;58760;48.716;8.962;2023-07-30T12:33:38;96389.81;;;22.32;59.71
71105;BME280;58760;48.716;8.962;2023-07-30T12:36:04;96395.19;;;22.11;60.06
71105;BME280;58760;48.716;8.962;2023-07-30T12:38:29;96390.28;;;21.74;61.05
71105;BME280;58760;48.716;8.962;2023-07-30T12:40:54;96402.88;;;21.52;60.86
71105;BME280;58760;48.716;8.962;2023-07-30T12:43:20;96393.94;;;21.85;60.56
71105;BME280;58760;48.716;8.962;2023-07-30T12:45:47;96393.63;;;22.75;57.97
71105;BME280;58760;48.716;8.962;2023-07-30T12:48:13;96394.34;;;23.72;55.07
71105;BME280;58760;48.716;8.962;2023-07-30T12:50:38;96396.31;;;24.14;52.47
71105;BME280;58760;48.716;8.962;2023-07-30T12:53:04;96395.25;;;24.67;50.35
71105;BME280;58760;48.716;8.962;2023-07-30T12:55:29;96398.44;;;24.59;49.68
71105;BME280;58760;48.716;8.962;2023-07-30T12:57:54;96391.34;;;25.05;47.16
71105;BME280;58760;48.716;8.962;2023-07-30T13:00:20;96403.81;;;24.95;48.05
71105;BME280;58760;48.716;8.962;2023-07-30T13:02:45;96398.50;;;25.56;46.72
71105;BME280;58760;48.716;8.962;2023-07-30T13:05:10;96392.28;;;25.86;46.29
71105;BME280;58760;48.716;8.962;2023-07-30T13:07:38;96402.34;;;25.85;45.76
71105;BME280;58760;48.716;8.962;2023-07-30T13:10:07;96409.25;;;25.01;47.20
71105;BME280;58760;48.716;8.962;2023-07-30T13:12:33;96410.50;;;23.94;52.21
71105;BME280;58760;48.716;8.962;2023-07-30T13:14:59;96417.88;;;23.13;53.19
71105;BME280;58760;48.716;8.962;2023-07-30T13:17:24;96419.44;;;22.44;55.23
71105;BME280;58760;48.716;8.962;2023-07-30T13:19:49;96414.88;;;22.28;56.93
71105;BME280;58760;48.716;8.962;2023-07-30T13:22:15;96422.13;;;22.82;55.04
71105;BME280;58760;48.716;8.962;2023-07-30T13:24:40;96415.72;;;23.15;54.41
71105;BME280;58760;48.716;8.962;2023-07-30T13:27:05;96412.91;;;23.90;52.34
71105;BME280;58760;48.716;8.962;2023-07-30T13:29:30;96425.53;;;23.75;50.15
71105;BME280;58760;48.716;8.962;2023-07-30T13:31:56;96424.34;;;23.34;51.11
71105;BME280;58760;48.716;8.962;2023-07-30T13:34:21;96422.72;;;23.60;51.00
71105;BME280;58760;48.716;8.962;2023-07-30T13:36:47;96433.28;;;23.13;52.20
71105;BME280;58760;48.716;8.962;2023-07-30T13:39:12;96445.41;;;22.83;52.00
71105;BME280;58760;48.716;8.962;2023-07-30T13:41:38;96424.53;;;22.79;52.64
71105;BME280;58760;48.716;8.962;2023-07-30T13:44:03;96441.56;;;23.76;52.39
71105;BME280;58760;48.716;8.962;2023-07-30T13:46:28;96430.75;;;23.81;51.76
71105;BME280;58760;48.716;8.962;2023-07-30T13:48:54;96436.72;;;23.52;52.07
71105;BME280;58760;48.716;8.962;2023-07-30T13:51:19;96441.41;;;23.13;52.10
71105;BME280;58760;48.716;8.962;2023-07-30T13:53:44;96443.81;;;23.31;51.77
71105;BME280;58760;48.716;8.962;2023-07-30T13:56:10;96451.50;;;22.96;51.61
71105;BME280;58760;48.716;8.962;2023-07-30T13:58:35;96441.28;;;22.59;52.75
71105;BME280;58760;48.716;8.962;2023-07-30T14:01:00;96431.38;;;22.48;53.17
71105;BME280;58760;48.716;8.962;2023-07-30T14:03:26;96452.72;;;22.28;54.55
71105;BME280;58760;48.716;8.962;2023-07-30T14:05:51;96446.47;;;22.06;54.32
71105;BME280;58760;48.716;8.962;2023-07-30T14:08:17;96451.97;;;22.87;52.28
71105;BME280;58760;48.716;8.962;2023-07-30T14:10:42;96448.84;;;23.22;51.96
71105;BME280;58760;48.716;8.962;2023-07-30T14:13:07;96464.97;;;23.12;52.22
71105;BME280;58760;48.716;8.962;2023-07-30T14:15:33;96466.81;;;24.14;50.70
71105;BME280;58760;48.716;8.962;2023-07-30T14:17:58;96448.81;;;24.03;49.81
71105;BME280;58760;48.716;8.962;2023-07-30T14:20:23;96443.03;;;24.68;46.49
71105;BME280;58760;48.716;8.962;2023-07-30T14:22:49;96443.34;;;24.76;46.89
71105;BME280;58760;48.716;8.962;2023-07-30T14:25:14;96458.13;;;25.01;46.68
71105;BME280;58760;48.716;8.962;2023-07-30T14:27:40;96451.97;;;25.25;45.53
71105;BME280;58760;48.716;8.962;2023-07-30T14:30:06;96451.09;;;25.05;45.15
71105;BME280;58760;48.716;8.962;2023-07-30T14:32:31;96456.00;;;25.18;45.21
71105;BME280;58760;48.716;8.962;2023-07-30T14:34:57;96463.34;;;24.65;46.76
71105;BME280;58760;48.716;8.962;2023-07-30T14:37:22;96481.50;;;23.86;48.03
71105;BME280;58760;48.716;8.962;2023-07-30T14:39:48;96485.34;;;23.41;48.82
71105;BME280;58760;48.716;8.962;2023-07-30T14:42:13;96486.88;;;23.32;49.31
71105;BME280;58760;48.716;8.962;2023-07-30T14:44:39;96487.72;;;23.86;47.02
71105;BME280;58760;48.716;8.962;2023-07-30T14:47:04;96487.03;;;23.69;46.65
71105;BME280;58760;48.716;8.962;2023-07-30T14:49:30;96482.34;;;23.91;47.03
71105;BME280;58760;48.716;8.962;2023-07-30T14:51:55;96474.19;;;23.38;47.73
71105;BME280;58760;48.716;8.962;2023-07-30T14:54:21;96486.94;;;23.91;46.02
71105;BME280;58760;48.716;8.962;2023-07-30T14:56:47;96486.38;;;24.16;45.42
71105;BME280;58760;48.716;8.962;2023-07-30T14:59:12;96488.69;;;24.34;44.21
71105;BME280;58760;48.716;8.962;2023-07-30T15:01:37;96483.09;;;24.92;43.11
71105;BME280;58760;48.716;8.962;2023-07-30T15:04:03;96489.91;;;24.58;43.30
71105;BME280;58760;48.716;8.962;2023-07-30T15:06:30;96497.41;;;24.41;44.83
71105;BME280;58760;48.716;8.962;2023-07-30T15:08:55;96503.53;;;24.63;43.71
71105;BME280;58760;48.716;8.962;2023-07-30T15:11:21;96482.59;;;25.06;42.19
71105;BME280;58760;48.716;8.962;2023-07-30T15:13:46;96495.47;;;25.35;41.98
71105;BME280;58760;48.716;8.962;2023-07-30T15:16:12;96493.28;;;24.33;42.64
71105;BME280;58760;48.716;8.962;2023-07-30T15:18:37;96495.38;;;24.21;44.50
71105;BME280;58760;48.716;8.962;2023-07-30T15:21:03;96504.41;;;24.79;42.74
71105;BME280;58760;48.716;8.962;2023-07-30T15:23:28;96478.13;;;24.84;41.19
71105;BME280;58760;48.716;8.962;2023-07-30T15:25:54;96490.00;;;24.73;42.34
71105;BME280;58760;48.716;8.962;2023-07-30T15:28:20;96487.91;;;24.38;43.54
71105;BME280;58760;48.716;8.962;2023-07-30T15:30:45;96492.66;;;23.41;44.45
71105;BME280;58760;48.716;8.962;2023-07-30T15:33:11;96497.50;;;22.96;45.13
71105;BME280;58760;48.716;8.962;2023-07-30T15:35:37;96502.03;;;22.52;46.24
71105;BME280;58760;48.716;8.962;2023-07-30T15:38:05;96497.97;;;22.66;45.84
71105;BME280;58760;48.716;8.962;2023-07-30T15:40:32;96509.13;;;22.36;44.70
71105;BME280;58760;48.716;8.962;2023-07-30T15:42:57;96490.69;;;22.16;45.27
71105;BME280;58760;48.716;8.962;2023-07-30T15:45:23;96477.66;;;22.85;44.63
71105;BME280;58760;48.716;8.962;2023-07-30T15:47:48;96484.81;;;22.74;44.98
71105;BME280;58760;48.716;8.962;2023-07-30T15:50:14;96485.25;;;23.10;46.02
71105;BME280;58760;48.716;8.962;2023-07-30T15:52:39;96488.00;;;22.93;44.36
71105;BME280;58760;48.716;8.962;2023-07-30T15:55:04;96491.72;;;23.09;43.42
71105;BME280;58760;48.716;8.962;2023-07-30T15:57:30;96489.00;;;23.09;43.38
71105;BME280;58760;48.716;8.962;2023-07-30T15:59:55;96485.97;;;22.45;44.26
71105;BME280;58760;48.716;8.962;2023-07-30T16:02:21;96487.38;;;22.31;44.58
71105;BME280;58760;48.716;8.962;2023-07-30T16:04:46;96485.69;;;22.08;45.52
71105;BME280;58760;48.716;8.962;2023-07-30T16:07:11;96491.38;;;21.78;46.24
71105;BME280;58760;48.716;8.962;2023-07-30T16:09:39;96474.09;;;21.79;44.90
71105;BME280;58760;48.716;8.962;2023-07-30T16:12:05;96487.81;;;21.89;44.92
71105;BME280;58760;48.716;8.962;2023-07-30T16:14:31;96485.59;;;22.20;45.30
71105;BME280;58760;48.716;8.962;2023-07-30T16:16:56;96496.09;;;22.00;45.06
71105;BME280;58760;48.716;8.962;2023-07-30T16:19:22;96498.25;;;21.86;45.22
71105;BME280;58760;48.716;8.962;2023-07-30T16:21:49;96487.16;;;22.16;44.78
71105;BME280;58760;48.716;8.962;2023-07-30T16:24:17;96501.53;;;22.55;43.78
71105;BME280;58760;48.716;8.962;2023-07-30T16:26:42;96506.44;;;22.74;43.22
71105;BME280;58760;48.716;8.962;2023-07-30T16:29:07;96507.69;;;22.67;43.57
71105;BME280;58760;48.716;8.962;2023-07-30T16:31:33;96500.16;;;22.52;43.81
71105;BME280;58760;48.716;8.962;2023-07-30T16:34:00;96505.63;;;22.57;44.02
71105;BME280;58760;48.716;8.962;2023-07-30T16:36:26;96515.69;;;22.40;44.85
71105;BME280;58760;48.716;8.962;2023-07-30T16:38:51;96516.66;;;22.01;45.97
71105;BME280;58760;48.716;8.962;2023-07-30T16:41:17;96511.47;;;21.54;46.72
71105;BME280;58760;48.716;8.962;2023-07-30T16:43:42;96513.69;;;21.29;47.42
71105;BME280;58760;48.716;8.962;2023-07-30T16:46:07;96518.63;;;21.32;47.43
71105;BME280;58760;48.716;8.962;2023-07-30T16:48:35;96521.41;;;21.37;47.11
71105;BME280;58760;48.716;8.962;2023-07-30T16:51:00;96528.25;;;21.28;48.04
71105;BME280;58760;48.716;8.962;2023-07-30T16:53:25;96533.16;;;21.31;48.41
71105;BME280;58760;48.716;8.962;2023-07-30T16:55:51;96525.31;;;21.29;47.92
71105;BME280;58760;48.716;8.962;2023-07-30T16:58:16;96521.53;;;21.30;47.37
71105;BME280;58760;48.716;8.962;2023-07-30T17:00:43;96536.84;;;21.25;48.42
71105;BME280;58760;48.716;8.962;2023-07-30T17:03:08;96532.31;;;21.42;46.09
71105;BME280;58760;48.716;8.962;2023-07-30T17:05:34;96533.28;;;21.36;46.55
71105;BME280;58760;48.716;8.962;2023-07-30T17:07:59;96525.22;;;21.53;45.55
71105;BME280;58760;48.716;8.962;2023-07-30T17:10:25;96530.94;;;21.56;44.92
71105;BME280;58760;48.716;8.962;2023-07-30T17:12:50;96524.75;;;21.72;44.09
71105;BME280;58760;48.716;8.962;2023-07-30T17:15:15;96531.31;;;21.76;43.88
71105;BME280;58760;48.716;8.962;2023-07-30T17:17:41;96537.56;;;21.77;43.38
71105;BME280;58760;48.716;8.962;2023-07-30T17:20:06;96538.03;;;21.74;44.30
71105;BME280;58760;48.716;8.962;2023-07-30T17:22:33;96531.44;;;21.53;44.74
71105;BME280;58760;48.716;8.962;2023-07-30T17:25:01;96530.47;;;21.59;44.58
71105;BME280;58760;48.716;8.962;2023-07-30T17:27:27;96540.78;;;21.62;43.86
71105;BME280;58760;48.716;8.962;2023-07-30T17:29:52;96542.91;;;21.60;45.53
71105;BME280;58760;48.716;8.962;2023-07-30T17:32:21;96540.47;;;21.75;44.98
71105;BME280;58760;48.716;8.962;2023-07-30T17:34:47;96553.63;;;21.55;44.28
71105;BME280;58760;48.716;8.962;2023-07-30T17:37:12;96550.31;;;21.25;46.04
71105;BME280;58760;48.716;8.962;2023-07-30T17:39:37;96546.31;;;21.27;45.58
71105;BME280;58760;48.716;8.962;2023-07-30T17:42:03;96551.16;;;21.14;45.66
71105;BME280;58760;48.716;8.962;2023-07-30T17:44:29;96545.81;;;20.91;47.32
71105;BME280;58760;48.716;8.962;2023-07-30T17:46:54;96548.97;;;20.76;46.60
71105;BME280;58760;48.716;8.962;2023-07-30T17:49:19;96549.19;;;20.74;47.10
71105;BME280;58760;48.716;8.962;2023-07-30T17:51:45;96548.78;;;20.54;47.34
71105;BME280;58760;48.716;8.962;2023-07-30T17:54:11;96544.66;;;20.40;46.56
71105;BME280;58760;48.716;8.962;2023-07-30T17:56:36;96558.03;;;20.35;47.37
71105;BME280;58760;48.716;8.962;2023-07-30T17:59:02;96550.50;;;20.25;47.73
71105;BME280;58760;48.716;8.962;2023-07-30T18:01:27;96556.66;;;20.03;48.76
71105;BME280;58760;48.716;8.962;2023-07-30T18:03:53;96555.78;;;19.91;49.07
71105;BME280;58760;48.716;8.962;2023-07-30T18:06:18;96558.59;;;19.84;49.93
71105;BME280;58760;48.716;8.962;2023-07-30T18:08:43;96557.75;;;19.83;50.05
71105;BME280;58760;48.716;8.962;2023-07-30T18:11:08;96558.22;;;19.80;50.60
71105;BME280;58760;48.716;8.962;2023-07-30T18:13:34;96567.84;;;19.76;50.55
71105;BME280;58760;48.716;8.962;2023-07-30T18:16:00;96572.41;;;19.76;49.67
71105;BME280;58760;48.716;8.962;2023-07-30T18:18:26;96567.94;;;19.70;50.54
71105;BME280;58760;48.716;8.962;2023-07-30T18:20:51;96568.94;;;19.57;50.20
71105;BME280;58760;48.716;8.962;2023-07-30T18:23:16;96577.78;;;19.46;51.48
71105;BME280;58760;48.716;8.962;2023-07-30T18:25:42;96574.03;;;19.47;51.24
71105;BME280;58760;48.716;8.962;2023-07-30T18:28:07;96571.63;;;19.39;51.72
71105;BME280;58760;48.716;8.962;2023-07-30T18:30:33;96564.47;;;19.33;52.93
71105;BME280;58760;48.716;8.962;2023-07-30T18:32:59;96566.56;;;19.31;51.56
71105;BME280;58760;48.716;8.962;2023-07-30T18:35:24;96568.22;;;19.14;52.59
71105;BME280;58760;48.716;8.962;2023-07-30T18:37:50;96568.13;;;19.20;52.23
71105;BME280;58760;48.716;8.962;2023-07-30T18:40:15;96557.75;;;19.06;53.01
71105;BME280;58760;48.716;8.962;2023-07-30T18:42:43;96562.00;;;19.13;52.42
71105;BME280;58760;48.716;8.962;2023-07-30T18:45:08;96562.69;;;18.91;54.25
71105;BME280;58760;48.716;8.962;2023-07-30T18:47:34;96569.09;;;18.90;53.87
71105;BME280;58760;48.716;8.962;2023-07-30T18:49:59;96573.00;;;18.75;54.37
71105;BME280;58760;48.716;8.962;2023-07-30T18:52:24;96566.25;;;18.66;55.06
71105;BME280;58760;48.716;8.962;2023-07-30T18:54:50;96569.00;;;18.60;55.24
71105;BME280;58760;48.716;8.962;2023-07-30T18:57:15;96567.00;;;18.55;55.62
71105;BME280;58760;48.716;8.962;2023-07-30T18:59:40;96574.25;;;18.55;55.52
71105;BME280;58760;48.716;8.962;2023-07-30T19:02:09;96574.72;;;18.45;56.13
71105;BME280;58760;48.716;8.962;2023-07-30T19:04:35;96568.88;;;18.48;55.15
71105;BME280;58760;48.716;8.962;2023-07-30T19:07:00;96579.69;;;18.42;55.68
71105;BME280;58760;48.716;8.962;2023-07-30T19:09:25;96576.44;;;18.40;56.04
71105;BME280;58760;48.716;8.962;2023-07-30T19:11:51;96577.50;;;18.32;56.69
71105;BME280;58760;48.716;8.962;2023-07-30T19:14:16;96575.31;;;18.22;56.47
71105;BME280;58760;48.716;8.962;2023-07-30T19:16:41;96577.63;;;18.19;57.10
71105;BME280;58760;48.716;8.962;2023-07-30T19:19:07;96582.47;;;18.10;57.53
71105;BME280;58760;48.716;8.962;2023-07-30T19:21:32;96580.84;;;18.03;58.79
71105;BME280;58760;48.716;8.962;2023-07-30T19:23:58;96578.59;;;18.00;60.11
71105;BME280;58760;48.716;8.962;2023-07-30T19:26:23;96583.88;;;17.88;61.68
71105;BME280;58760;48.716;8.962;2023-07-30T19:28:48;96585.53;;;17.83;59.63
71105;BME280;58760;48.716;8.962;2023-07-30T19:31:14;96587.22;;;17.77;63.21
71105;BME280;58760;48.716;8.962;2023-07-30T19:33:40;96598.03;;;17.64;62.22
71105;BME280;58760;48.716;8.962;2023-07-30T19:36:07;96589.16;;;17.63;60.13
71105;BME280;58760;48.716;8.962;2023-07-30T19:38:32;96595.19;;;17.59;64.36
71105;BME280;58760;48.716;8.962;2023-07-30T19:40:58;96601.38;;;17.59;65.42
71105;BME280;58760;48.716;8.962;2023-07-30T19:43:23;96599.75;;;17.52;67.95
71105;BME280;58760;48.716;8.962;2023-07-30T19:45:49;96599.94;;;17.50;62.58
71105;BME280;58760;48.716;8.962;2023-07-30T19:48:15;96588.56;;;17.55;62.65
71105;BME280;58760;48.716;8.962;2023-07-30T19:50:40;96582.81;;;17.51;60.66
71105;BME280;58760;48.716;8.962;2023-07-30T19:53:06;96583.41;;;17.53;60.51
71105;BME280;58760;48.716;8.962;2023-07-30T19:55:33;96580.13;;;17.51;59.73
71105;BME280;58760;48.716;8.962;2023-07-30T19:57:58;96581.81;;;17.46;60.28
71105;BME280;58760;48.716;8.962;2023-07-30T20:00:24;96588.13;;;17.64;59.70
71105;BME280;58760;48.716;8.962;2023-07-30T20:02:50;96593.19;;;17.41;60.20
71105;BME280;58760;48.716;8.962;2023-07-30T20:05:15;96591.47;;;17.53;60.37
71105;BME280;58760;48.716;8.962;2023-07-30T20:07:44;96593.38;;;17.40;59.81
71105;BME280;58760;48.716;8.962;2023-07-30T20:10:10;96590.72;;;17.33;61.51
71105;BME280;58760;48.716;8.962;2023-07-30T20:12:36;96594.94;;;17.16;64.91
71105;BME280;58760;48.716;8.962;2023-07-30T20:15:02;96599.69;;;17.14;63.81
71105;BME280;58760;48.716;8.962;2023-07-30T20:17:28;96596.03;;;17.02;66.79